Time;durP1;ratioP1;P1;durP2;ratioP2;P2;SDS_P1;SDS_P2;PMS_P1;PMS_P2;Temp;Humidity;BMP_temperature;BMP_pressure;BME280_temperature;BME280_humidity;BME280_pressure;Samples;Min_cycle;Max_cycle;Signal;HPM_P1;HPM_P2
2021/05/02 00:00:08;;;;;;;10.43;4.80;;;;;;;14.01;80.79;98196.16;5095565;28;20127;-92
2021/05/02 00:02:35;;;;;;;10.67;4.73;;;;;;;13.99;80.58;98193.59;5095978;28;20044;-91
2021/05/02 00:05:01;;;;;;;9.48;4.53;;;;;;;13.94;81.15;98206.31;5096097;28;20297;-93
2021/05/02 00:07:27;;;;;;;8.23;5.07;;;;;;;13.91;80.86;98201.13;5096198;28;20048;-93
2021/05/02 00:09:53;;;;;;;7.57;4.05;;;;;;;13.80;80.01;98190.97;5095998;28;20139;-92
2021/05/02 00:12:19;;;;;;;7.03;4.50;;;;;;;13.84;79.88;98216.59;5091026;28;20043;-92
2021/05/02 00:14:45;;;;;;;8.02;4.18;;;;;;;13.85;79.52;98221.00;5094232;28;20040;-91
2021/05/02 00:17:11;;;;;;;10.95;4.20;;;;;;;13.78;79.32;98211.56;5095510;28;20094;-92
2021/05/02 00:19:38;;;;;;;7.00;3.60;;;;;;;13.78;79.72;98227.59;5095446;28;20036;-93
2021/05/02 00:22:05;;;;;;;8.07;3.60;;;;;;;13.74;79.87;98224.19;5088869;28;20468;-93
2021/05/02 00:24:33;;;;;;;7.75;3.75;;;;;;;13.74;79.71;98223.31;5093395;28;20493;-93
2021/05/02 00:27:00;;;;;;;8.85;3.60;;;;;;;13.81;79.47;98226.56;5095890;28;20047;-92
2021/05/02 00:29:26;;;;;;;10.98;4.55;;;;;;;13.83;79.14;98212.19;5095533;28;20049;-93
2021/05/02 00:31:53;;;;;;;8.50;3.80;;;;;;;13.85;79.04;98217.47;5094954;28;20490;-92
2021/05/02 00:34:19;;;;;;;8.15;3.80;;;;;;;13.95;79.03;98240.13;5090780;28;20070;-92
2021/05/02 00:36:45;;;;;;;8.07;3.58;;;;;;;13.81;78.69;98197.16;5095263;28;20093;-93
2021/05/02 00:39:11;;;;;;;9.18;3.90;;;;;;;13.83;78.57;98208.66;5089568;28;20040;-93
2021/05/02 00:41:41;;;;;;;8.13;3.47;;;;;;;13.90;78.49;98210.97;5094930;28;20051;-92
2021/05/02 00:44:16;;;;;;;9.10;3.88;;;;;;;13.95;77.78;98216.06;5095761;28;20442;-93
2021/05/02 00:46:49;;;;;;;8.68;3.47;;;;;;;13.94;78.18;98217.00;5092840;28;20568;-92
2021/05/02 00:49:18;;;;;;;7.50;3.28;;;;;;;13.89;77.86;98200.34;5093660;28;20032;-91
2021/05/02 00:51:47;;;;;;;8.02;3.50;;;;;;;14.02;77.83;98225.50;5091828;28;20044;-92
2021/05/02 00:54:16;;;;;;;7.53;3.22;;;;;;;13.97;77.92;98222.22;5094701;28;20051;-92
2021/05/02 00:56:58;;;;;;;5.28;3.15;;;;;;;14.04;77.52;98218.28;5093165;28;20040;-92
2021/05/02 00:59:42;;;;;;;6.97;3.40;;;;;;;14.09;77.45;98223.41;5092140;28;20044;-92
2021/05/02 01:02:11;;;;;;;9.50;3.50;;;;;;;14.14;76.34;98214.22;5094221;28;20040;-93
2021/05/02 01:04:41;;;;;;;6.18;2.88;;;;;;;14.06;76.86;98204.84;5094530;28;20055;-92
2021/05/02 01:07:14;;;;;;;5.47;3.13;;;;;;;13.90;76.99;98183.34;5093349;28;20060;-92
2021/05/02 01:09:41;;;;;;;6.97;3.10;;;;;;;13.93;76.92;98176.03;5094579;28;20074;-93
2021/05/02 01:12:11;;;;;;;6.78;3.03;;;;;;;14.01;76.92;98188.16;5094639;28;20473;-91
2021/05/02 01:14:41;;;;;;;7.78;3.05;;;;;;;13.95;77.01;98202.72;5092776;28;20093;-92
2021/05/02 01:17:11;;;;;;;7.38;3.30;;;;;;;13.88;77.27;98186.13;5094543;28;20123;-92
2021/05/02 01:19:37;;;;;;;7.38;3.25;;;;;;;13.87;77.66;98188.84;5094558;28;20044;-92
2021/05/02 01:22:13;;;;;;;6.40;3.33;;;;;;;13.97;78.01;98206.16;5094554;28;20044;-92
2021/05/02 01:24:44;;;;;;;6.65;3.10;;;;;;;13.97;77.67;98190.13;5093615;28;20389;-93
2021/05/02 01:27:15;;;;;;;7.40;3.15;;;;;;;13.90;77.77;98189.56;5092400;28;20036;-92
2021/05/02 01:29:41;;;;;;;6.57;3.10;;;;;;;13.73;78.03;98170.84;5093034;28;20047;-91
2021/05/02 01:32:07;;;;;;;5.40;3.13;;;;;;;13.88;78.13;98195.91;5094566;28;20066;-92
2021/05/02 01:34:33;;;;;;;6.65;3.10;;;;;;;13.86;78.23;98196.00;5095021;28;20091;-92
2021/05/02 01:36:59;;;;;;;6.25;3.22;;;;;;;13.68;78.89;98184.41;5094564;28;20044;-93
2021/05/02 01:39:27;;;;;;;7.13;3.17;;;;;;;13.52;78.95;98162.94;5093280;28;20131;-91
2021/05/02 01:41:54;;;;;;;8.90;3.17;;;;;;;13.49;78.69;98175.59;5093396;28;20047;-92
2021/05/02 01:44:19;;;;;;;5.70;2.70;;;;;;;13.61;79.07;98188.31;5093948;28;20040;-92
2021/05/02 01:46:47;;;;;;;5.00;2.55;;;;;;;13.65;78.99;98195.25;5093246;28;20040;-92
2021/05/02 01:49:17;;;;;;;4.60;2.60;;;;;;;13.62;78.72;98176.72;5094725;28;20043;-91
2021/05/02 01:51:44;;;;;;;5.35;2.63;;;;;;;13.67;78.95;98197.84;5094425;28;20067;-92
2021/05/02 01:54:13;;;;;;;5.70;2.35;;;;;;;13.59;79.08;98208.91;5093496;28;20047;-92
2021/05/02 01:56:40;;;;;;;3.50;2.20;;;;;;;13.55;79.23;98201.97;5090757;28;20055;-92
2021/05/02 01:59:09;;;;;;;6.22;2.63;;;;;;;13.34;79.63;98194.06;5089751;28;20043;-92
2021/05/02 02:01:35;;;;;;;5.88;2.20;;;;;;;13.32;79.57;98198.59;5090537;28;20047;-92
2021/05/02 02:04:04;;;;;;;3.25;2.10;;;;;;;13.27;79.94;98199.72;5090977;28;20051;-92
2021/05/02 02:06:30;;;;;;;7.25;2.33;;;;;;;13.11;80.29;98205.78;5093198;28;20090;-92
2021/05/02 02:08:58;;;;;;;6.47;2.45;;;;;;;13.08;80.82;98210.41;5093756;28;20044;-91
2021/05/02 02:11:27;;;;;;;9.48;2.67;;;;;;;13.00;79.86;98207.22;5093619;28;20064;-93
2021/05/02 02:13:53;;;;;;;7.03;2.47;;;;;;;13.01;78.88;98201.81;5093607;28;20127;-92
2021/05/02 02:16:22;;;;;;;6.60;1.88;;;;;;;12.99;78.98;98209.03;5088727;28;20046;-91
2021/05/02 02:18:48;;;;;;;7.40;2.33;;;;;;;13.12;78.08;98234.22;5089052;28;20060;-91
2021/05/02 02:21:18;;;;;;;5.03;2.00;;;;;;;12.93;78.78;98211.97;5090834;28;20448;-91
2021/05/02 02:23:51;;;;;;;5.30;2.13;;;;;;;12.97;79.37;98244.72;5089135;28;20048;-91
2021/05/02 02:26:24;;;;;;;5.65;2.03;;;;;;;12.86;79.50;98238.06;5089536;28;20075;-92
2021/05/02 02:28:53;;;;;;;5.70;2.28;;;;;;;12.82;79.72;98236.47;5093696;28;20044;-92
2021/05/02 02:31:21;;;;;;;7.10;2.25;;;;;;;12.97;78.71;98239.38;5092062;28;20509;-90
2021/05/02 02:33:48;;;;;;;9.57;2.30;;;;;;;12.92;77.98;98231.56;5093414;28;20050;-91
2021/05/02 02:36:15;;;;;;;9.00;2.20;;;;;;;13.13;77.89;98259.09;5092954;28;20040;-91
2021/05/02 02:38:42;;;;;;;5.63;2.10;;;;;;;13.02;77.77;98259.59;5092947;28;20044;-91
2021/05/02 02:41:14;;;;;;;9.63;2.33;;;;;;;12.91;77.48;98238.72;5093459;28;20480;-91
2021/05/02 02:43:42;;;;;;;8.55;2.40;;;;;;;12.90;77.72;98257.47;5093067;28;20068;-93
2021/05/02 02:46:15;;;;;;;7.55;2.50;;;;;;;12.91;77.65;98259.22;5091745;28;20082;-92
2021/05/02 02:48:45;;;;;;;8.65;2.10;;;;;;;12.88;78.27;98276.25;5092741;28;20489;-90
2021/05/02 02:51:13;;;;;;;8.85;2.25;;;;;;;13.00;78.38;98289.97;5093139;28;20569;-93
2021/05/02 02:53:42;;;;;;;11.20;2.40;;;;;;;12.84;77.89;98273.78;5093066;28;20071;-93
2021/05/02 02:56:08;;;;;;;;;;;;;;;12.91;77.90;98286.75;5094144;28;20044;-91
2021/05/02 02:58:39;;;;;;;5.07;1.95;;;;;;;12.86;77.96;98279.88;5093184;28;19958;-92
2021/05/02 03:01:05;;;;;;;6.97;2.20;;;;;;;12.82;78.11;98287.19;5089640;28;20075;-92
2021/05/02 03:03:33;;;;;;;8.40;2.03;;;;;;;12.80;77.47;98274.84;5093218;28;20037;-93
2021/05/02 03:08:57;;;;;;;5.85;2.10;;;;;;;12.79;76.19;98297.97;5132260;27;20352;-91
2021/05/02 03:11:25;;;;;;;8.00;2.47;;;;;;;12.78;75.54;98298.06;5131908;27;20042;-93
2021/05/02 03:13:52;;;;;;;6.22;2.10;;;;;;;12.61;75.55;98280.09;5132310;27;20043;-91
2021/05/02 03:16:22;;;;;;;9.98;2.38;;;;;;;12.58;75.50;98299.78;5131795;27;20496;-91
2021/05/02 03:18:54;;;;;;;8.48;2.35;;;;;;;12.63;75.05;98311.09;5131769;27;20441;-90
2021/05/02 03:21:30;;;;;;;9.93;3.13;;;;;;;12.47;75.01;98289.56;5131732;27;20036;-90
2021/05/02 03:24:02;;;;;;;7.95;2.03;;;;;;;12.60;74.84;98313.91;5131768;27;20043;-91
2021/05/02 03:26:30;;;;;;;5.95;1.90;;;;;;;12.52;74.76;98292.03;5131380;27;20035;-89
2021/05/02 03:28:58;;;;;;;9.98;2.47;;;;;;;12.73;75.09;98316.94;5131948;27;20496;-91
2021/05/02 03:31:28;;;;;;;8.60;2.33;;;;;;;12.70;74.41;98311.72;5129977;27;20039;-91
2021/05/02 03:34:00;;;;;;;7.63;2.30;;;;;;;12.73;74.69;98322.28;5131029;27;20051;-92
2021/05/02 03:36:32;;;;;;;14.50;3.00;;;;;;;12.79;74.70;98331.78;5131058;27;20552;-90
2021/05/02 03:39:00;;;;;;;7.82;1.90;;;;;;;12.72;75.03;98317.84;5129813;27;20047;-90
2021/05/02 03:41:26;;;;;;;11.77;2.20;;;;;;;12.76;75.25;98327.47;5131273;27;20531;-93
2021/05/02 03:43:52;;;;;;;7.80;2.50;;;;;;;12.80;75.79;98334.41;5131491;27;20053;-93
2021/05/02 03:49:11;;;;;;;10.32;2.75;;;;;;;12.77;75.57;98336.31;5126972;27;20346;-92
2021/05/02 03:51:39;;;;;;;9.57;2.38;;;;;;;12.67;75.88;98326.06;5111415;27;20043;-90
2021/05/02 03:54:06;;;;;;;10.52;2.67;;;;;;;12.68;75.85;98329.56;5111815;28;20493;-91
2021/05/02 03:56:35;;;;;;;8.20;2.58;;;;;;;12.63;75.56;98315.59;5111426;28;20052;-91
2021/05/02 03:59:09;;;;;;;10.50;2.58;;;;;;;12.84;75.23;98336.00;5111488;28;20044;-92
2021/05/02 04:01:36;;;;;;;10.15;2.28;;;;;;;12.80;75.30;98338.88;5110399;28;20036;-91
2021/05/02 04:04:03;;;;;;;12.38;2.47;;;;;;;12.69;75.46;98326.84;5111332;27;20104;-90
2021/05/02 04:06:29;;;;;;;9.10;2.40;;;;;;;12.68;75.31;98333.09;5110849;28;20051;-91
2021/05/02 04:08:55;;;;;;;13.95;2.70;;;;;;;12.62;75.66;98329.84;5110825;28;20214;-92
2021/05/02 04:11:21;;;;;;;12.95;2.15;;;;;;;12.78;75.75;98349.59;5110925;28;20134;-92
2021/05/02 04:13:47;;;;;;;8.85;2.15;;;;;;;12.70;76.20;98344.59;5111480;27;20557;-92
2021/05/02 04:16:14;;;;;;;6.43;2.30;;;;;;;12.71;76.02;98335.66;5110666;27;20100;-92
2021/05/02 04:18:40;;;;;;;8.60;2.40;;;;;;;12.71;75.76;98335.66;5111758;27;20036;-92
2021/05/02 04:21:06;;;;;;;7.90;2.70;;;;;;;12.64;75.95;98327.97;5111163;28;20465;-92
2021/05/02 04:23:33;;;;;;;7.68;2.58;;;;;;;12.69;75.95;98337.53;5111598;28;20123;-92
2021/05/02 04:25:59;;;;;;;10.80;2.83;;;;;;;12.77;75.63;98358.53;5112853;28;20039;-92
2021/05/02 04:28:25;;;;;;;11.20;2.30;;;;;;;12.71;75.95;98354.34;5114511;27;20059;-92
2021/05/02 04:30:51;;;;;;;9.60;2.80;;;;;;;12.62;76.24;98354.72;5109621;27;20146;-92
2021/05/02 04:33:16;;;;;;;8.93;3.28;;;;;;;12.74;75.94;98372.88;5111111;28;20044;-93
2021/05/02 04:35:42;;;;;;;11.82;2.65;;;;;;;12.77;75.98;98381.69;5110733;28;20067;-91
2021/05/02 04:38:08;;;;;;;9.50;2.75;;;;;;;12.71;76.32;98372.16;5110976;27;20036;-92
2021/05/02 04:40:35;;;;;;;11.32;2.50;;;;;;;12.79;76.51;98391.34;5110370;28;20043;-92
2021/05/02 04:43:01;;;;;;;9.02;2.20;;;;;;;12.80;76.18;98379.75;5111083;27;20051;-92
2021/05/02 04:45:27;;;;;;;10.98;2.88;;;;;;;12.70;76.16;98365.94;5108733;28;20039;-93
2021/05/02 04:47:53;;;;;;;8.13;2.30;;;;;;;12.88;76.70;98396.31;5110376;28;20074;-93
2021/05/02 04:50:19;;;;;;;9.48;2.80;;;;;;;12.81;76.46;98372.63;5110540;28;20051;-92
2021/05/02 04:52:45;;;;;;;8.30;2.33;;;;;;;12.93;75.87;98388.13;5110987;27;20572;-92
2021/05/02 04:55:11;;;;;;;6.95;2.47;;;;;;;12.87;75.65;98388.38;5110527;28;20127;-91
2021/05/02 04:57:38;;;;;;;8.85;2.65;;;;;;;12.85;75.90;98385.75;5110950;28;20501;-91
2021/05/02 05:00:06;;;;;;;8.90;2.17;;;;;;;12.87;76.01;98373.22;5098534;28;20040;-93
2021/05/02 05:02:32;;;;;;;4.75;1.80;;;;;;;12.93;75.53;98372.09;5097353;28;20532;-91
2021/05/02 05:04:58;;;;;;;11.05;2.88;;;;;;;12.99;75.28;98381.63;5099033;28;20115;-92
2021/05/02 05:07:24;;;;;;;11.13;2.67;;;;;;;12.88;75.71;98377.63;5105995;28;20136;-92
2021/05/02 05:09:50;;;;;;;8.02;2.00;;;;;;;13.04;75.68;98401.00;5098687;28;20134;-92
2021/05/02 05:12:16;;;;;;;7.68;2.10;;;;;;;12.99;75.49;98384.28;5098806;28;20040;-92
2021/05/02 05:14:42;;;;;;;5.15;2.20;;;;;;;13.02;75.09;98390.38;5099378;28;20454;-92
2021/05/02 05:17:08;;;;;;;7.15;2.00;;;;;;;13.14;75.01;98413.88;5098318;28;20036;-93
2021/05/02 05:19:34;;;;;;;8.77;2.83;;;;;;;13.07;74.76;98407.06;5103328;28;20036;-91
2021/05/02 05:22:00;;;;;;;8.70;2.47;;;;;;;12.87;74.74;98389.22;5101230;28;20459;-92
2021/05/02 05:24:26;;;;;;;5.65;2.00;;;;;;;12.98;74.41;98399.44;5101633;28;20034;-90
2021/05/02 05:26:52;;;;;;;7.13;2.00;;;;;;;13.15;74.71;98422.75;5099575;28;20081;-91
2021/05/02 05:29:17;;;;;;;8.52;2.25;;;;;;;13.07;74.52;98395.53;5097387;28;20098;-91
2021/05/02 05:31:44;;;;;;;6.78;2.50;;;;;;;13.20;74.07;98425.22;5098519;28;20521;-92
2021/05/02 05:34:10;;;;;;;9.68;2.08;;;;;;;13.04;74.42;98398.34;5099040;28;20040;-92
2021/05/02 05:36:36;;;;;;;7.85;2.20;;;;;;;13.26;74.59;98417.81;5098350;28;20051;-92
2021/05/02 05:39:02;;;;;;;7.07;2.20;;;;;;;13.23;73.84;98411.72;5098455;28;20066;-92
2021/05/02 05:41:28;;;;;;;9.32;2.42;;;;;;;13.27;74.36;98424.91;5099579;28;20109;-91
2021/05/02 05:43:54;;;;;;;6.57;2.45;;;;;;;13.26;74.39;98417.81;5098109;28;20040;-94
2021/05/02 05:46:20;;;;;;;6.47;2.05;;;;;;;13.38;73.70;98435.16;5096743;28;20044;-92
2021/05/02 05:48:47;;;;;;;7.43;2.40;;;;;;;13.24;73.39;98406.34;5104886;28;20044;-92
2021/05/02 05:51:13;;;;;;;6.88;2.25;;;;;;;13.36;73.60;98413.00;5098465;28;20162;-91
2021/05/02 05:53:38;;;;;;;6.70;2.20;;;;;;;13.40;73.55;98421.72;5098403;28;20082;-91
2021/05/02 05:56:04;;;;;;;7.93;2.13;;;;;;;13.54;72.79;98427.31;5098896;28;20027;-92
2021/05/02 05:58:32;;;;;;;6.78;1.88;;;;;;;13.51;73.48;98427.44;5099025;28;20032;-90
2021/05/02 06:00:58;;;;;;;7.05;2.00;;;;;;;13.67;72.89;98443.66;5097559;28;20047;-93
2021/05/02 06:03:24;;;;;;;6.88;2.42;;;;;;;13.65;72.95;98445.53;5096626;28;20055;-92
2021/05/02 06:05:51;;;;;;;10.18;2.28;;;;;;;13.69;73.36;98447.16;5099516;28;20409;-91
2021/05/02 06:08:16;;;;;;;9.25;2.40;;;;;;;13.81;73.01;98457.25;5097223;28;20036;-89
2021/05/02 06:10:42;;;;;;;7.38;2.33;;;;;;;13.75;73.16;98445.06;5096935;28;20153;-93
2021/05/02 06:13:08;;;;;;;12.93;2.35;;;;;;;13.82;72.92;98442.13;5097082;28;20067;-91
2021/05/02 06:15:34;;;;;;;10.77;2.22;;;;;;;13.89;72.85;98440.88;5095038;28;20044;-92
2021/05/02 06:18:00;;;;;;;7.78;2.28;;;;;;;13.82;72.53;98415.41;5097083;28;20569;-92
2021/05/02 06:20:26;;;;;;;9.07;2.22;;;;;;;13.92;72.27;98428.25;5097483;28;20520;-92
2021/05/02 06:22:54;;;;;;;8.48;2.22;;;;;;;14.09;72.07;98456.88;5096879;28;20040;-92
2021/05/02 06:25:21;;;;;;;5.95;2.40;;;;;;;14.08;71.60;98425.75;5097309;28;20040;-91
2021/05/02 06:27:47;;;;;;;8.80;2.08;;;;;;;14.32;70.98;98441.56;5098367;28;20036;-91
2021/05/02 06:30:13;;;;;;;7.35;2.25;;;;;;;14.42;70.65;98458.94;5096290;28;20066;-91
2021/05/02 06:32:39;;;;;;;6.40;2.28;;;;;;;14.38;70.73;98449.31;5097288;28;20036;-88
2021/05/02 06:35:06;;;;;;;5.60;2.17;;;;;;;14.49;70.49;98459.50;5103329;28;20040;-91
2021/05/02 06:37:32;;;;;;;7.25;2.10;;;;;;;14.65;69.51;98456.97;5097499;28;20043;-91
2021/05/02 06:39:59;;;;;;;9.45;2.50;;;;;;;14.63;68.88;98464.19;5095784;28;20040;-90
2021/05/02 06:42:25;;;;;;;7.70;2.38;;;;;;;14.92;68.70;98481.50;5094521;28;20493;-90
2021/05/02 06:44:51;;;;;;;8.38;2.30;;;;;;;15.02;68.10;98465.88;5097045;28;20098;-91
2021/05/02 06:47:20;;;;;;;7.65;2.13;;;;;;;15.15;67.75;98470.50;5095975;28;20398;-92
2021/05/02 06:49:46;;;;;;;9.23;2.30;;;;;;;14.99;67.41;98470.44;5097403;28;20036;-91
2021/05/02 06:52:13;;;;;;;7.82;2.38;;;;;;;14.96;67.88;98442.91;5096309;28;20116;-92
2021/05/02 06:54:39;;;;;;;6.57;1.80;;;;;;;15.20;67.02;98462.25;5091153;28;20477;-91
2021/05/02 06:57:06;;;;;;;6.18;2.20;;;;;;;15.34;66.42;98458.88;5097770;28;20181;-91
2021/05/02 06:59:32;;;;;;;9.05;2.47;;;;;;;15.69;66.02;98467.75;5100995;28;20446;-94
2021/05/02 07:01:58;;;;;;;5.68;2.20;;;;;;;15.72;64.56;98461.38;5098521;28;20047;-92
2021/05/02 07:04:23;;;;;;;8.98;2.10;;;;;;;16.04;63.99;98477.56;5093698;28;20048;-91
2021/05/02 07:06:50;;;;;;;8.65;2.35;;;;;;;15.85;64.80;98459.78;5098067;28;20560;-90
2021/05/02 07:09:15;;;;;;;7.97;2.40;;;;;;;15.93;65.25;98476.34;5095358;28;20114;-93
2021/05/02 07:11:42;;;;;;;7.10;2.22;;;;;;;15.82;65.17;98458.13;5097072;28;20052;-93
2021/05/02 07:14:08;;;;;;;7.00;2.25;;;;;;;15.61;66.14;98452.09;5096559;28;20048;-92
2021/05/02 07:16:34;;;;;;;7.63;2.47;;;;;;;15.66;65.19;98462.56;5094813;28;20505;-92
2021/05/02 07:19:01;;;;;;;7.82;2.22;;;;;;;15.87;65.45;98460.56;5099404;28;20142;-93
2021/05/02 07:21:27;;;;;;;10.38;2.40;;;;;;;15.88;65.50;98474.88;5097132;28;20032;-91
2021/05/02 07:23:53;;;;;;;7.65;2.88;;;;;;;16.12;64.84;98475.34;5108815;28;20044;-93
2021/05/02 07:26:21;;;;;;;6.90;2.25;;;;;;;16.12;63.75;98437.81;5096773;28;20113;-92
2021/05/02 07:28:47;;;;;;;9.38;2.75;;;;;;;16.30;63.96;98468.97;5098004;28;20123;-91
2021/05/02 07:31:14;;;;;;;7.10;2.33;;;;;;;16.47;63.63;98473.41;5097309;28;20072;-92
2021/05/02 07:33:41;;;;;;;8.80;2.65;;;;;;;16.81;62.38;98450.06;5096446;28;20048;-90
2021/05/02 07:36:07;;;;;;;11.48;2.22;;;;;;;16.96;62.14;98465.28;5097137;28;20067;-91
2021/05/02 07:38:34;;;;;;;6.82;2.30;;;;;;;16.79;61.72;98465.34;5091495;28;20089;-90
2021/05/02 07:41:00;;;;;;;7.82;2.25;;;;;;;16.68;63.09;98457.06;5096260;28;20044;-91
2021/05/02 07:43:27;;;;;;;10.32;2.67;;;;;;;16.80;62.88;98464.41;5095900;28;20044;-91
2021/05/02 07:45:54;;;;;;;9.15;2.40;;;;;;;17.21;60.65;98470.06;5095278;28;20036;-91
2021/05/02 07:48:20;;;;;;;7.63;2.85;;;;;;;16.78;62.64;98479.72;5098138;28;20505;-91
2021/05/02 07:50:46;;;;;;;7.47;2.33;;;;;;;16.34;62.01;98461.63;5096775;28;20040;-93
2021/05/02 07:53:12;;;;;;;7.80;2.50;;;;;;;16.22;63.47;98480.13;5097405;28;20047;-92
2021/05/02 07:55:38;;;;;;;4.97;2.00;;;;;;;16.37;63.21;98489.16;5103714;28;20039;-92
2021/05/02 07:58:04;;;;;;;6.40;2.17;;;;;;;16.55;63.23;98502.50;5097703;28;20440;-92
2021/05/02 08:00:33;;;;;;;9.70;2.33;;;;;;;16.76;62.38;98487.88;5093341;28;20439;-91
2021/05/02 08:02:59;;;;;;;9.05;2.72;;;;;;;16.46;62.40;98481.53;5094462;28;20047;-93
2021/05/02 08:05:26;;;;;;;8.10;2.92;;;;;;;16.71;62.43;98513.25;5094436;28;20044;-92
2021/05/02 08:07:52;;;;;;;6.47;2.40;;;;;;;16.71;61.76;98505.19;5094585;28;20044;-93
2021/05/02 08:10:20;;;;;;;7.50;2.80;;;;;;;17.33;58.02;98502.56;5094830;28;20040;-93
2021/05/02 08:12:46;;;;;;;4.97;2.22;;;;;;;17.86;56.22;98510.13;5094189;28;20036;-92
2021/05/02 08:15:12;;;;;;;7.63;2.22;;;;;;;18.47;53.93;98500.03;5093457;28;20036;-93
2021/05/02 08:17:38;;;;;;;6.65;2.13;;;;;;;18.96;52.89;98516.75;5094198;28;20052;-93
2021/05/02 08:20:06;;;;;;;6.55;2.10;;;;;;;19.48;52.29;98480.91;5093613;28;20044;-91
2021/05/02 08:22:33;;;;;;;5.38;2.08;;;;;;;19.88;50.80;98507.88;5093705;28;20047;-91
2021/05/02 08:24:59;;;;;;;6.00;2.00;;;;;;;19.15;52.61;98500.22;5094010;28;20040;-92
2021/05/02 08:27:25;;;;;;;6.68;2.97;;;;;;;18.31;53.21;98520.84;5093652;28;20052;-93
2021/05/02 08:29:53;;;;;;;6.40;2.13;;;;;;;18.43;52.57;98527.25;4976723;28;20045;-93
2021/05/02 08:32:19;;;;;;;6.65;2.58;;;;;;;19.09;51.22;98509.59;5053351;28;20120;-92
2021/05/02 08:34:44;;;;;;;6.63;2.10;;;;;;;19.25;52.14;98514.81;5055216;28;20045;-92
2021/05/02 08:37:10;;;;;;;7.63;2.38;;;;;;;19.26;52.16;98500.38;5057927;28;20067;-90
2021/05/02 08:39:37;;;;;;;7.40;2.35;;;;;;;18.60;51.96;98492.03;5057973;28;20049;-92
2021/05/02 08:42:03;;;;;;;6.53;2.58;;;;;;;18.96;52.26;98506.84;5057732;28;20045;-93
2021/05/02 08:44:29;;;;;;;6.43;2.30;;;;;;;18.60;53.41;98529.75;5057874;28;20051;-92
2021/05/02 08:46:56;;;;;;;7.45;2.15;;;;;;;18.73;52.05;98512.81;5023611;28;20045;-94
2021/05/02 08:49:22;;;;;;;6.95;2.20;;;;;;;18.88;52.44;98514.53;4976589;28;20084;-93
2021/05/02 08:51:49;;;;;;;7.03;2.20;;;;;;;19.10;51.60;98522.09;5051763;28;20037;-91
2021/05/02 08:54:15;;;;;;;7.85;2.40;;;;;;;18.78;52.08;98513.41;5057763;28;20045;-89
2021/05/02 08:56:42;;;;;;;7.25;2.40;;;;;;;18.60;53.15;98521.66;5050411;28;20037;-93
2021/05/02 08:59:09;;;;;;;7.22;2.30;;;;;;;18.55;53.05;98523.81;5057191;28;20041;-92
2021/05/02 09:01:36;;;;;;;7.57;2.20;;;;;;;18.63;52.94;98532.28;5055634;28;20045;-90
2021/05/02 09:04:03;;;;;;;4.95;2.20;;;;;;;18.45;52.87;98528.03;5056619;28;20048;-94
2021/05/02 09:06:31;;;;;;;5.53;2.38;;;;;;;19.04;52.33;98504.50;5056743;28;20116;-92
2021/05/02 09:09:02;;;;;;;7.45;2.35;;;;;;;19.33;51.26;98490.06;5053947;28;20037;-93
2021/05/02 09:11:33;;;;;;;4.68;2.30;;;;;;;19.35;50.02;98486.28;5057163;28;20040;-91
2021/05/02 09:14:03;;;;;;;8.48;2.40;;;;;;;20.02;48.83;98529.38;5056668;28;20088;-93
2021/05/02 09:16:43;;;;;;;6.18;2.85;;;;;;;19.49;49.69;98517.69;5049493;28;20063;-92
2021/05/02 09:19:08;;;;;;;14.68;2.97;;;;;;;20.12;49.18;98518.78;5055196;28;20499;-93
2021/05/02 09:21:34;;;;;;;4.15;2.10;;;;;;;20.64;47.47;98490.78;5057806;28;20047;-91
2021/05/02 09:24:05;;;;;;;7.32;2.20;;;;;;;20.50;47.85;98469.28;5057619;28;20498;-93
2021/05/02 09:26:32;;;;;;;5.85;2.30;;;;;;;20.99;47.66;98479.25;5057328;28;20049;-92
2021/05/02 09:29:02;;;;;;;6.70;2.42;;;;;;;21.38;45.62;98493.41;5057280;28;20076;-92
2021/05/02 09:31:31;;;;;;;5.15;2.08;;;;;;;21.22;45.52;98490.16;5005126;28;452355;-93
2021/05/02 09:34:53;;;;;;;5.75;2.45;;;;;;;21.50;44.79;98495.22;4995056;27;417263;-92
2021/05/02 09:40:18;;;;;;;6.45;2.33;;;;;;;21.12;45.76;98484.56;5154714;27;20361;-90
2021/05/02 09:42:49;;;;;;;4.20;2.33;;;;;;;21.40;43.74;98461.72;5154740;27;20087;-92
2021/05/02 09:45:15;;;;;;;7.13;2.40;;;;;;;21.54;45.35;98464.25;5154295;27;20038;-92
2021/05/02 09:47:42;;;;;;;5.55;2.28;;;;;;;21.74;45.19;98476.25;5154726;27;20110;-91
2021/05/02 09:53:17;;;;;;;5.82;2.03;;;;;;;21.40;44.19;98461.72;5133824;27;20326;-90
2021/05/02 09:55:44;;;;;;;4.72;1.90;;;;;;;21.83;43.82;98477.38;5072030;27;400387;-90
2021/05/02 09:59:27;;;;;;;5.95;2.20;;;;;;;21.52;46.38;98477.03;4949168;27;201144;-92
2021/05/02 10:02:15;;;;;;;8.40;2.08;;;;;;;21.36;45.88;98470.19;5028257;28;20040;-91
2021/05/02 10:04:45;;;;;;;5.90;2.50;;;;;;;21.60;45.63;98465.66;5017192;28;20071;-90
2021/05/02 10:08:19;;;;;;;6.00;2.10;;;;;;;21.75;45.65;98468.97;5091623;27;20199;-92
2021/05/02 10:10:45;;;;;;;3.90;2.05;;;;;;;22.12;43.88;98472.38;4995972;28;126743;-92
2021/05/02 10:13:12;;;;;;;5.35;2.22;;;;;;;22.00;44.00;98472.50;5033248;28;20589;-91
2021/05/02 10:15:38;;;;;;;7.05;2.40;;;;;;;21.26;45.37;98472.72;5049009;28;20099;-92
2021/05/02 10:18:04;;;;;;;5.47;2.20;;;;;;;21.36;45.00;98454.84;5047627;28;20038;-90
2021/05/02 10:20:30;;;;;;;6.60;2.28;;;;;;;21.59;45.13;98474.72;5050438;28;20617;-92
2021/05/02 10:22:56;;;;;;;4.60;2.08;;;;;;;20.84;46.57;98488.47;5051558;28;20044;-92
2021/05/02 10:25:23;;;;;;;5.75;2.20;;;;;;;20.97;46.69;98450.56;5051823;28;20068;-92
2021/05/02 10:27:51;;;;;;;6.07;2.65;;;;;;;20.72;46.88;98445.16;5049871;28;20041;-92
2021/05/02 10:30:27;;;;;;;5.30;2.20;;;;;;;21.03;46.85;98460.94;5050574;28;20045;-90
2021/05/02 10:33:00;;;;;;;5.53;2.05;;;;;;;21.02;46.42;98465.50;5049659;28;20049;-91
2021/05/02 10:35:41;;;;;;;5.35;2.38;;;;;;;20.86;46.14;98454.97;5047838;28;20041;-91
2021/05/02 10:38:07;;;;;;;6.13;2.47;;;;;;;20.82;46.48;98455.28;5051962;28;20053;-91
2021/05/02 10:40:39;;;;;;;5.38;2.15;;;;;;;20.46;46.76;98459.69;5050942;28;20104;-90
2021/05/02 10:43:08;;;;;;;7.13;2.20;;;;;;;20.14;48.18;98481.75;5050369;28;20384;-92
2021/05/02 10:45:54;;;;;;;6.80;2.50;;;;;;;20.09;47.62;98483.94;5050961;28;20088;-93
2021/05/02 10:48:45;;;;;;;8.63;3.15;;;;;;;20.23;49.00;98485.63;5038579;28;20056;-92
2021/05/02 10:51:30;;;;;;;6.57;2.47;;;;;;;20.61;47.64;98480.22;5013063;28;20052;-92
2021/05/02 10:54:11;;;;;;;4.50;2.10;;;;;;;20.91;47.51;98481.66;5048880;28;20057;-92
2021/05/02 10:56:55;;;;;;;5.57;2.80;;;;;;;20.61;47.21;98468.56;5049342;28;20045;-91
2021/05/02 10:59:24;;;;;;;6.53;2.60;;;;;;;20.49;47.44;98475.66;5049513;28;20053;-93
2021/05/02 11:01:50;;;;;;;6.40;2.40;;;;;;;19.88;47.96;98486.28;5016169;28;20041;-93
2021/05/02 11:04:16;;;;;;;5.72;2.50;;;;;;;19.06;49.02;98470.25;5046867;28;20053;-91
2021/05/02 11:06:52;;;;;;;5.95;2.70;;;;;;;19.16;48.77;98483.94;5050108;28;20125;-93
2021/05/02 11:09:20;;;;;;;5.18;2.30;;;;;;;19.02;48.94;98476.78;5049065;28;20037;-90
2021/05/02 11:11:54;;;;;;;6.07;2.47;;;;;;;18.65;49.02;98489.94;5049752;28;20087;-93
2021/05/02 11:14:36;;;;;;;6.28;2.50;;;;;;;18.78;49.19;98506.22;5051481;28;20442;-92
2021/05/02 11:17:20;;;;;;;5.13;2.92;;;;;;;18.63;50.99;98510.72;5049160;28;20476;-91
2021/05/02 11:19:47;;;;;;;5.68;2.30;;;;;;;18.72;51.21;98476.09;5037171;28;20244;-91
2021/05/02 11:22:14;;;;;;;5.13;2.10;;;;;;;18.83;49.96;98496.00;5037498;28;20041;-92
2021/05/02 11:24:57;;;;;;;7.07;2.47;;;;;;;18.84;50.53;98516.56;5034799;28;20514;-93
2021/05/02 11:27:54;;;;;;;4.75;2.20;;;;;;;18.61;51.14;98517.19;5033913;28;20053;-91
2021/05/02 11:30:25;;;;;;;8.25;2.42;;;;;;;18.72;51.42;98529.97;5016725;28;20137;-92
2021/05/02 11:32:51;;;;;;;4.70;2.22;;;;;;;18.66;51.23;98518.59;5036520;28;20041;-92
2021/05/02 11:35:20;;;;;;;6.80;2.60;;;;;;;18.60;50.73;98502.81;5036775;28;20485;-91
2021/05/02 11:37:51;;;;;;;4.22;2.22;;;;;;;18.72;51.15;98506.56;5037386;28;20132;-91
2021/05/02 11:40:39;;;;;;;5.00;2.20;;;;;;;18.72;51.82;98520.03;5037261;28;20511;-92
2021/05/02 11:43:12;;;;;;;4.43;2.03;;;;;;;18.70;51.23;98538.13;5036179;28;20049;-91
2021/05/02 11:45:49;;;;;;;8.95;2.58;;;;;;;18.27;51.39;98530.06;5030937;28;20321;-90
2021/05/02 11:48:24;;;;;;;6.13;1.83;;;;;;;18.39;50.72;98531.09;5037131;28;20388;-92
2021/05/02 11:50:54;;;;;;;4.85;2.20;;;;;;;18.41;49.56;98532.78;5036375;28;20136;-92